JST566 YMML-YBBN
Flight info
| Callsign | JST566 |
|---|---|
| Flight time | N/A |
| Altitude | 37000 |
| Route | NONIX4/34 NONIX H66 BLAKA BLAK8A/19L |
| Aircraft | A320/M-SDE3FGHIRWY/LB1 |
Departure
| Time | N/A |
|---|---|
| Airport | Melbourne Airport (YMML) |
Arrival
| Time | 2026-05-01 07:57 |
|---|---|
| Airport | Brisbane International Airport (YBBN) |
| Time | Latitude | Longitude | Altitude | Speed | Heading |
|---|---|---|---|---|---|
| 2026-05-01 07:23 | -29.70775 | 152.22054 | 37327 ft | 479 kts | 40° |
| 2026-05-01 07:24 | -29.63251 | 152.29618 | 37328 ft | 479 kts | 39° |
| 2026-05-01 07:24 | -29.58231 | 152.34643 | 37325 ft | 479 kts | 39° |
| 2026-05-01 07:25 | -29.53200 | 152.39668 | 37314 ft | 479 kts | 39° |
| 2026-05-01 07:25 | -29.48176 | 152.44692 | 37308 ft | 479 kts | 39° |
| 2026-05-01 07:26 | -29.43139 | 152.49718 | 37310 ft | 480 kts | 39° |
| 2026-05-01 07:26 | -29.38096 | 152.54739 | 37308 ft | 480 kts | 39° |
| 2026-05-01 07:27 | -29.33050 | 152.59749 | 37304 ft | 480 kts | 39° |
| 2026-05-01 07:27 | -29.28002 | 152.64763 | 37293 ft | 480 kts | 39° |
| 2026-05-01 07:28 | -29.22954 | 152.69777 | 37292 ft | 481 kts | 39° |
| 2026-05-01 07:28 | -29.17877 | 152.74794 | 37296 ft | 481 kts | 39° |
| 2026-05-01 07:29 | -29.12819 | 152.79793 | 37285 ft | 481 kts | 39° |
| 2026-05-01 07:29 | -29.07755 | 152.84805 | 37297 ft | 482 kts | 39° |
| 2026-05-01 07:30 | -29.02692 | 152.89817 | 36836 ft | 483 kts | 39° |
| 2026-05-01 07:30 | -29.00131 | 152.92339 | 36021 ft | 488 kts | 39° |
| 2026-05-01 07:30 | -28.97545 | 152.94880 | 35142 ft | 494 kts | 40° |
| 2026-05-01 07:30 | -28.94944 | 152.97435 | 34612 ft | 492 kts | 40° |
| 2026-05-01 07:31 | -28.92349 | 152.99988 | 34006 ft | 490 kts | 40° |
| 2026-05-01 07:31 | -28.83731 | 153.05728 | 32355 ft | 473 kts | 13° |
| 2026-05-01 07:32 | -28.77387 | 153.07394 | 31321 ft | 464 kts | 10° |
| 2026-05-01 07:32 | -28.74250 | 153.08202 | 30818 ft | 460 kts | 11° |
| 2026-05-01 07:33 | -28.68099 | 153.09805 | 29771 ft | 453 kts | 11° |
| 2026-05-01 07:33 | -28.65000 | 153.10612 | 29280 ft | 446 kts | 11° |
| 2026-05-01 07:33 | -28.59055 | 153.12148 | 28348 ft | 436 kts | 11° |
| 2026-05-01 07:34 | -28.56120 | 153.12902 | 27905 ft | 431 kts | 11° |
| 2026-05-01 07:34 | -28.50297 | 153.14398 | 27034 ft | 422 kts | 11° |
| 2026-05-01 07:34 | -28.47445 | 153.15130 | 26608 ft | 418 kts | 11° |
| 2026-05-01 07:35 | -28.44617 | 153.15857 | 26196 ft | 414 kts | 12° |
| 2026-05-01 07:35 | -28.41821 | 153.16576 | 25769 ft | 412 kts | 12° |
| 2026-05-01 07:35 | -28.39032 | 153.17292 | 25347 ft | 409 kts | 11° |
| 2026-05-01 07:35 | -28.36261 | 153.18002 | 24911 ft | 407 kts | 12° |
| 2026-05-01 07:36 | -28.33511 | 153.18707 | 24475 ft | 405 kts | 12° |
| 2026-05-01 07:36 | -28.30773 | 153.19407 | 24024 ft | 403 kts | 12° |
| 2026-05-01 07:36 | -28.28040 | 153.20107 | 23538 ft | 402 kts | 12° |
| 2026-05-01 07:36 | -28.25317 | 153.20803 | 23074 ft | 399 kts | 13° |
| 2026-05-01 07:37 | -28.19948 | 153.22177 | 22149 ft | 393 kts | 12° |
| 2026-05-01 07:37 | -28.17274 | 153.22768 | 21689 ft | 390 kts | 10° |
| 2026-05-01 07:37 | -28.14607 | 153.23256 | 21230 ft | 386 kts | 9° |
| 2026-05-01 07:38 | -28.11961 | 153.23684 | 20771 ft | 383 kts | 8° |
| 2026-05-01 07:38 | -28.09334 | 153.24091 | 20314 ft | 380 kts | 8° |
| 2026-05-01 07:38 | -28.05001 | 153.24779 | 19568 ft | 376 kts | 9° |
| 2026-05-01 07:39 | -28.01553 | 153.25359 | 18965 ft | 373 kts | 10° |
| 2026-05-01 07:39 | -27.99851 | 153.25655 | 18665 ft | 372 kts | 11° |
| 2026-05-01 07:39 | -27.94774 | 153.26544 | 17720 ft | 365 kts | 11° |
| 2026-05-01 07:40 | -27.92281 | 153.26975 | 17280 ft | 361 kts | 11° |
| 2026-05-01 07:40 | -27.89003 | 153.27541 | 16693 ft | 357 kts | 11° |
| 2026-05-01 07:40 | -27.87350 | 153.27826 | 16415 ft | 355 kts | 10° |
| 2026-05-01 07:40 | -27.84924 | 153.28244 | 15971 ft | 352 kts | 11° |
| 2026-05-01 07:41 | -27.82511 | 153.28658 | 15543 ft | 349 kts | 11° |
| 2026-05-01 07:41 | -27.80123 | 153.29069 | 15119 ft | 347 kts | 11° |
| 2026-05-01 07:41 | -27.75378 | 153.29891 | 14272 ft | 343 kts | 11° |
| 2026-05-01 07:42 | -27.73031 | 153.30298 | 13828 ft | 341 kts | 11° |
| 2026-05-01 07:42 | -27.70695 | 153.30702 | 13400 ft | 338 kts | 11° |
| 2026-05-01 07:42 | -27.68372 | 153.31101 | 12985 ft | 335 kts | 11° |
| 2026-05-01 07:42 | -27.66076 | 153.31494 | 12570 ft | 332 kts | 11° |
| 2026-05-01 07:43 | -27.63796 | 153.31843 | 12168 ft | 331 kts | 6° |
| 2026-05-01 07:43 | -27.61520 | 153.31952 | 11930 ft | 324 kts | 5° |
| 2026-05-01 07:43 | -27.57065 | 153.32163 | 11433 ft | 318 kts | 5° |
| 2026-05-01 07:44 | -27.52665 | 153.32375 | 10940 ft | 315 kts | 6° |
| 2026-05-01 07:44 | -27.48298 | 153.32583 | 10289 ft | 315 kts | 6° |
| 2026-05-01 07:45 | -27.46133 | 153.32687 | 10097 ft | 307 kts | 6° |
| 2026-05-01 07:45 | -27.44016 | 153.32788 | 9848 ft | 301 kts | 6° |
| 2026-05-01 07:45 | -27.41948 | 153.32888 | 9672 ft | 296 kts | 6° |
| 2026-05-01 07:45 | -27.39891 | 153.32989 | 9462 ft | 295 kts | 6° |
| 2026-05-01 07:46 | -27.37838 | 153.33091 | 9247 ft | 295 kts | 6° |
| 2026-05-01 07:46 | -27.35812 | 153.33346 | 9031 ft | 291 kts | 17° |
| 2026-05-01 07:46 | -27.32120 | 153.35034 | 8442 ft | 285 kts | 28° |
| 2026-05-01 07:47 | -27.30324 | 153.35957 | 8174 ft | 283 kts | 28° |
| 2026-05-01 07:47 | -27.28541 | 153.36869 | 7882 ft | 282 kts | 28° |
| 2026-05-01 07:47 | -27.26760 | 153.37781 | 7595 ft | 281 kts | 28° |
| 2026-05-01 07:47 | -27.24985 | 153.38689 | 7314 ft | 279 kts | 28° |
| 2026-05-01 07:48 | -27.21389 | 153.40312 | 6744 ft | 282 kts | 14° |
| 2026-05-01 07:48 | -27.19418 | 153.40309 | 6444 ft | 287 kts | 352° |
| 2026-05-01 07:48 | -27.17545 | 153.39512 | 6122 ft | 291 kts | 330° |
| 2026-05-01 07:49 | -27.15944 | 153.38112 | 5804 ft | 292 kts | 321° |
| 2026-05-01 07:49 | -27.13561 | 153.34796 | 5359 ft | 263 kts | 285° |
| 2026-05-01 07:49 | -27.13355 | 153.32821 | 5245 ft | 249 kts | 261° |
| 2026-05-01 07:50 | -27.13785 | 153.31012 | 5120 ft | 233 kts | 240° |
| 2026-05-01 07:50 | -27.15137 | 153.27824 | 4748 ft | 218 kts | 239° |
| 2026-05-01 07:50 | -27.15839 | 153.26377 | 4578 ft | 206 kts | 227° |
| 2026-05-01 07:51 | -27.16840 | 153.25259 | 4422 ft | 200 kts | 209° |
| 2026-05-01 07:51 | -27.18031 | 153.24514 | 4195 ft | 195 kts | 200° |
| 2026-05-01 07:51 | -27.19243 | 153.23826 | 3948 ft | 195 kts | 200° |
| 2026-05-01 07:52 | -27.21653 | 153.22454 | 3448 ft | 191 kts | 200° |
| 2026-05-01 07:52 | -27.22812 | 153.21792 | 3190 ft | 182 kts | 200° |
| 2026-05-01 07:52 | -27.23910 | 153.21165 | 2965 ft | 174 kts | 200° |
| 2026-05-01 07:53 | -27.26013 | 153.19967 | 2513 ft | 166 kts | 199° |
| 2026-05-01 07:53 | -27.27039 | 153.19383 | 2311 ft | 164 kts | 199° |
| 2026-05-01 07:53 | -27.28043 | 153.18811 | 2092 ft | 161 kts | 199° |
| 2026-05-01 07:53 | -27.29040 | 153.18242 | 1877 ft | 159 kts | 198° |
| 2026-05-01 07:54 | -27.30797 | 153.17235 | 1506 ft | 131 kts | 199° |
| 2026-05-01 07:55 | -27.33208 | 153.15864 | 997 ft | 134 kts | 200° |
| 2026-05-01 07:55 | -27.34907 | 153.14885 | 604 ft | 135 kts | 199° |
| 2026-05-01 07:56 | -27.37505 | 153.13407 | 57 ft | 138 kts | 204° |
| 2026-05-01 07:56 | -27.38758 | 153.12694 | 21 ft | 53 kts | 207° |
| 2026-05-01 07:57 | -27.39050 | 153.12527 | 19 ft | 44 kts | 207° |
| 2026-05-01 07:57 | -27.39569 | 153.12209 | 21 ft | 28 kts | 238° |
| 2026-05-01 07:58 | -27.39442 | 153.11942 | 18 ft | 15 kts | 12° |
| 2026-05-01 07:58 | -27.39254 | 153.12045 | 18 ft | 15 kts | 26° |
| 2026-05-01 07:59 | -27.39072 | 153.12148 | 19 ft | 14 kts | 27° |
| 2026-05-01 07:59 | -27.38903 | 153.12245 | 19 ft | 13 kts | 26° |
| 2026-05-01 08:00 | -27.38669 | 153.12296 | 18 ft | 7 kts | 272° |
| 2026-05-01 08:01 | -27.38646 | 153.12244 | 18 ft | 0 kts | 307° |